Time;durP1;ratioP1;P1;durP2;ratioP2;P2;SDS_P1;SDS_P2;PMS_P1;PMS_P2;Temp;Humidity;BMP_temperature;BMP_pressure;BME280_temperature;BME280_humidity;BME280_pressure;Samples;Min_cycle;Max_cycle;Signal;HPM_P1;HPM_P2
2022/06/05 00:00:04;;;;;;;4.20;3.90;;;22.80;57.10;;;;;;5075011;28;20475;-66
2022/06/05 00:02:47;;;;;;;5.10;4.67;;;22.70;57.60;;;;;;5075017;28;20429;-66
2022/06/05 00:05:21;;;;;;;5.57;5.07;;;22.60;57.90;;;;;;5074786;28;20778;-66
2022/06/05 00:08:05;;;;;;;4.50;4.10;;;22.50;58.30;;;;;;5074538;28;20457;-66
2022/06/05 00:10:38;;;;;;;6.20;4.23;;;22.50;58.60;;;;;;5074450;28;20485;-66
2022/06/05 00:13:11;;;;;;;5.27;4.77;;;22.40;58.90;;;;;;5074353;28;20527;-66
2022/06/05 00:15:38;;;;;;;4.93;4.63;;;22.40;59.00;;;;;;5074557;28;20429;-66
2022/06/05 00:18:07;;;;;;;5.67;4.97;;;22.30;59.40;;;;;;5074680;28;20448;-66
2022/06/05 00:20:33;;;;;;;5.40;4.90;;;22.20;59.70;;;;;;5074342;28;20460;-66
2022/06/05 00:23:00;;;;;;;5.77;5.13;;;22.20;59.90;;;;;;5074417;28;20444;-66
2022/06/05 00:25:37;;;;;;;6.73;6.07;;;22.10;60.10;;;;;;5074527;28;20448;-66
2022/06/05 00:28:09;;;;;;;5.60;5.20;;;22.00;60.70;;;;;;5073987;28;20914;-66
2022/06/05 00:30:46;;;;;;;5.43;4.97;;;21.90;61.10;;;;;;5073807;28;21068;-66
2022/06/05 00:33:21;;;;;;;5.33;4.93;;;21.90;61.60;;;;;;5073863;28;20824;-65
2022/06/05 00:35:54;;;;;;;5.40;5.00;;;21.90;61.80;;;;;;5074623;28;20429;-66
2022/06/05 00:38:30;;;;;;;6.10;4.87;;;21.90;61.90;;;;;;5074169;28;20432;-66
2022/06/05 00:41:12;;;;;;;5.33;4.93;;;21.80;61.90;;;;;;5074037;28;20464;-66
2022/06/05 00:43:39;;;;;;;5.83;5.43;;;21.80;62.10;;;;;;5073709;28;20797;-66
2022/06/05 00:46:06;;;;;;;5.40;5.00;;;21.80;63.20;;;;;;5073933;28;20453;-66
2022/06/05 00:48:34;;;;;;;7.40;5.00;;;21.80;62.50;;;;;;5073619;28;20449;-66
2022/06/05 00:51:01;;;;;;;5.60;5.10;;;21.70;62.70;;;;;;5073485;28;21008;-66
2022/06/05 00:53:27;;;;;;;5.37;4.90;;;21.70;63.10;;;;;;5073591;28;20938;-66
2022/06/05 00:55:54;;;;;;;5.67;5.17;;;21.70;63.50;;;;;;5073714;28;20448;-66
2022/06/05 00:58:22;;;;;;;5.83;5.43;;;21.70;63.60;;;;;;5073378;28;20463;-66
2022/06/05 01:00:52;;;;;;;6.00;5.40;;;21.60;63.90;;;;;;5073416;28;20468;-66
2022/06/05 01:03:21;;;;;;;5.47;5.07;;;21.60;64.20;;;;;;5074283;28;20494;-66
2022/06/05 01:05:49;;;;;;;5.80;5.40;;;21.60;64.30;;;;;;5073731;28;20440;-66
2022/06/05 01:08:17;;;;;;;6.50;6.10;;;21.60;64.50;;;;;;5073464;28;20452;-66
2022/06/05 01:10:50;;;;;;;5.63;5.20;;;21.50;64.70;;;;;;5073521;28;20484;-66
2022/06/05 01:13:29;;;;;;;6.00;5.60;;;21.50;64.90;;;;;;5073688;28;20820;-66
2022/06/05 01:15:59;;;;;;;6.80;5.77;;;21.50;65.30;;;;;;5073592;28;20425;-66
2022/06/05 01:18:31;;;;;;;5.60;5.20;;;21.40;65.70;;;;;;5073578;28;20956;-66
2022/06/05 01:21:20;;;;;;;5.83;5.43;;;21.30;65.90;;;;;;5073535;28;20464;-67
2022/06/05 01:24:04;;;;;;;5.47;4.57;;;21.30;66.10;;;;;;5073374;28;20899;-66
2022/06/05 01:26:35;;;;;;;6.23;5.83;;;21.30;66.30;;;;;;5073572;28;20443;-66
2022/06/05 01:29:07;;;;;;;5.70;5.30;;;21.30;66.60;;;;;;5073320;28;20436;-66
2022/06/05 01:31:38;;;;;;;6.03;5.40;;;21.30;66.70;;;;;;5074340;28;20491;-66
2022/06/05 01:34:20;;;;;;;5.83;5.13;;;21.30;66.90;;;;;;5075575;28;20439;-66
2022/06/05 01:36:54;;;;;;;5.60;5.27;;;21.30;67.10;;;;;;5075421;28;20440;-66
2022/06/05 01:39:24;;;;;;;5.00;4.67;;;21.30;67.40;;;;;;5073100;28;20825;-66
2022/06/05 01:41:56;;;;;;;6.03;5.43;;;21.30;67.70;;;;;;5073610;28;20443;-67
2022/06/05 01:44:30;;;;;;;5.90;5.40;;;21.30;67.90;;;;;;5073591;28;20429;-66
2022/06/05 01:47:00;;;;;;;5.30;4.90;;;21.30;68.10;;;;;;5073284;28;20425;-67
2022/06/05 01:49:32;;;;;;;5.80;5.30;;;21.30;68.20;;;;;;5073219;28;20433;-67
2022/06/05 01:52:02;;;;;;;5.50;5.00;;;21.30;68.50;;;;;;5073018;28;20467;-67
2022/06/05 01:54:33;;;;;;;6.30;5.67;;;21.20;68.50;;;;;;5072826;28;20801;-67
2022/06/05 01:57:05;;;;;;;6.07;5.60;;;21.20;68.80;;;;;;5073294;28;20459;-66
2022/06/05 01:59:38;;;;;;;6.33;5.83;;;21.20;69.10;;;;;;5072982;28;20456;-66
2022/06/05 02:02:09;;;;;;;6.40;6.00;;;21.10;69.10;;;;;;5073164;28;20534;-67
2022/06/05 02:04:39;;;;;;;5.97;5.47;;;21.10;69.50;;;;;;5073170;28;20429;-66
2022/06/05 02:07:11;;;;;;;6.43;5.83;;;21.10;69.60;;;;;;5073156;28;20436;-66
2022/06/05 02:09:43;;;;;;;6.30;5.90;;;21.10;69.80;;;;;;5073038;28;20433;-66
2022/06/05 02:12:11;;;;;;;6.30;5.80;;;21.10;70.20;;;;;;5076911;28;20464;-66
2022/06/05 02:14:42;;;;;;;6.70;6.20;;;21.10;70.50;;;;;;5076991;28;20440;-66
2022/06/05 02:17:09;;;;;;;7.27;6.67;;;21.10;70.70;;;;;;5076816;28;20432;-66
2022/06/05 02:19:37;;;;;;;6.40;5.90;;;21.10;71.00;;;;;;5076769;28;20814;-66
2022/06/05 02:22:10;;;;;;;6.73;6.13;;;21.00;71.20;;;;;;5076765;28;20811;-66
2022/06/05 02:24:37;;;;;;;7.00;6.40;;;21.10;71.70;;;;;;5076384;28;20901;-66
2022/06/05 02:27:07;;;;;;;7.50;6.90;;;21.10;72.30;;;;;;5076537;28;20452;-66
2022/06/05 02:29:36;;;;;;;6.43;5.93;;;21.00;72.60;;;;;;5076549;28;20448;-66
2022/06/05 02:32:13;;;;;;;6.93;6.43;;;21.00;73.00;;;;;;5076540;28;20480;-66
2022/06/05 02:34:47;;;;;;;6.30;5.70;;;21.00;73.00;;;;;;5076265;28;20902;-66
2022/06/05 02:37:29;;;;;;;7.23;6.73;;;21.00;73.30;;;;;;5076142;28;20902;-66
2022/06/05 02:40:09;;;;;;;6.30;5.80;;;21.10;73.60;;;;;;5076541;28;20472;-66
2022/06/05 02:42:40;;;;;;;6.27;5.77;;;21.10;73.20;;;;;;5076918;28;20428;-66
2022/06/05 02:45:19;;;;;;;7.90;5.77;;;21.10;73.40;;;;;;5076561;28;20429;-66
2022/06/05 02:47:54;;;;;;;5.73;5.33;;;21.10;73.40;;;;;;5076391;28;20463;-66
2022/06/05 02:50:26;;;;;;;5.57;5.07;;;21.10;73.10;;;;;;5076109;28;20464;-66
2022/06/05 02:52:53;;;;;;;5.23;4.83;;;21.20;73.00;;;;;;5075940;28;20906;-66
2022/06/05 02:55:22;;;;;;;7.43;5.80;;;21.20;72.70;;;;;;5076069;28;20455;-66
2022/06/05 02:57:49;;;;;;;5.93;5.43;;;21.20;73.30;;;;;;5075949;28;20464;-66
2022/06/05 03:00:20;;;;;;;6.37;5.87;;;21.30;73.70;;;;;;5075978;28;20539;-66
2022/06/05 03:05:33;;;;;;;6.53;6.03;;;21.30;73.30;;;;;;5076070;28;20404;-66
2022/06/05 03:08:00;;;;;;;6.10;5.60;;;21.30;73.40;;;;;;5075740;28;20551;-66
2022/06/05 03:10:27;;;;;;;6.00;5.57;;;21.30;73.50;;;;;;5075757;28;20468;-66
2022/06/05 03:12:54;;;;;;;9.13;6.87;;;21.30;73.50;;;;;;5075957;28;20441;-66
2022/06/05 03:15:22;;;;;;;6.13;5.73;;;21.30;73.30;;;;;;5075858;28;20448;-66
2022/06/05 03:17:49;;;;;;;7.70;7.00;;;21.30;73.30;;;;;;5075783;28;20444;-66
2022/06/05 03:20:17;;;;;;;5.97;5.57;;;21.30;73.30;;;;;;5075783;28;20460;-66
2022/06/05 03:22:45;;;;;;;6.10;5.40;;;21.30;73.40;;;;;;5075350;28;21111;-66
2022/06/05 03:25:17;;;;;;;7.37;6.67;;;21.30;73.30;;;;;;5075747;28;20436;-66
2022/06/05 03:27:44;;;;;;;6.80;6.30;;;21.30;73.50;;;;;;5076287;28;20432;-66
2022/06/05 03:30:12;;;;;;;6.43;6.03;;;21.20;73.40;;;;;;5076105;28;20467;-67
2022/06/05 03:32:40;;;;;;;6.43;6.03;;;21.20;73.40;;;;;;5076884;28;20483;-66
2022/06/05 03:35:08;;;;;;;7.10;6.50;;;21.20;73.60;;;;;;5076433;28;20449;-66
2022/06/05 03:37:36;;;;;;;6.77;6.17;;;21.20;73.80;;;;;;5075365;28;20467;-66
2022/06/05 03:40:02;;;;;;;10.13;6.20;;;21.20;74.00;;;;;;5075564;28;20483;-66
2022/06/05 03:42:29;;;;;;;6.20;5.80;;;21.20;74.10;;;;;;5075198;28;20444;-66
2022/06/05 03:44:56;;;;;;;6.60;6.10;;;21.10;74.10;;;;;;5075071;28;20445;-66
2022/06/05 03:47:22;;;;;;;6.30;5.80;;;21.10;74.20;;;;;;5075047;28;20444;-66
2022/06/05 03:49:51;;;;;;;6.70;6.20;;;21.10;74.00;;;;;;5075042;28;20479;-66
2022/06/05 03:52:17;;;;;;;8.90;5.90;;;21.10;74.30;;;;;;5074966;28;20477;-66
2022/06/05 03:54:44;;;;;;;6.30;5.50;;;21.10;74.20;;;;;;5074963;28;20441;-66
2022/06/05 03:57:11;;;;;;;6.63;6.13;;;21.10;74.20;;;;;;5075425;28;20440;-66
2022/06/05 03:59:37;;;;;;;6.50;6.00;;;21.10;74.50;;;;;;5074817;28;20445;-67
2022/06/05 04:02:05;;;;;;;7.07;6.50;;;21.10;74.60;;;;;;5074769;28;20441;-66
2022/06/05 04:04:33;;;;;;;6.10;5.50;;;21.10;74.70;;;;;;5074777;28;20508;-66
2022/06/05 04:07:01;;;;;;;7.07;6.47;;;21.10;74.90;;;;;;5075168;28;20449;-66
2022/06/05 04:09:28;;;;;;;6.33;5.83;;;21.10;75.10;;;;;;5075022;28;20451;-66
2022/06/05 04:11:55;;;;;;;7.23;6.63;;;21.10;75.30;;;;;;5075223;28;20478;-65
2022/06/05 04:14:21;;;;;;;6.30;5.80;;;21.10;75.20;;;;;;5085726;28;20474;-66
2022/06/05 04:16:48;;;;;;;6.50;6.00;;;21.10;75.60;;;;;;5096512;28;20446;-66
2022/06/05 04:19:15;;;;;;;7.10;6.60;;;21.10;75.80;;;;;;5093146;28;20459;-66
2022/06/05 04:21:46;;;;;;;6.80;5.70;;;21.10;75.90;;;;;;5093786;28;20482;-66
2022/06/05 04:24:15;;;;;;;9.40;6.70;;;21.10;76.10;;;;;;5092955;28;20538;-66
2022/06/05 04:26:42;;;;;;;6.83;6.23;;;21.10;76.40;;;;;;5094066;28;20463;-66
2022/06/05 04:29:10;;;;;;;6.20;5.80;;;21.20;76.70;;;;;;5093878;28;20466;-66
2022/06/05 04:31:39;;;;;;;6.20;5.70;;;21.20;76.80;;;;;;5092579;28;20823;-66
2022/06/05 04:34:08;;;;;;;5.83;5.33;;;21.20;76.90;;;;;;5092289;28;20463;-66
2022/06/05 04:36:35;;;;;;;7.53;7.00;;;21.20;76.80;;;;;;5085422;28;20464;-67
2022/06/05 04:39:02;;;;;;;6.73;6.13;;;21.20;76.90;;;;;;5094362;28;20440;-66
2022/06/05 04:41:31;;;;;;;6.03;5.53;;;21.30;77.10;;;;;;5093769;28;20460;-68
2022/06/05 04:43:58;;;;;;;6.30;5.90;;;21.30;77.30;;;;;;5093161;28;20467;-66
2022/06/05 04:46:27;;;;;;;6.50;5.97;;;21.30;77.40;;;;;;5092469;28;20464;-67
2022/06/05 04:48:55;;;;;;;6.07;5.67;;;21.40;77.60;;;;;;5091922;28;20463;-67
2022/06/05 04:51:22;;;;;;;6.37;5.90;;;21.40;77.80;;;;;;5080590;28;20484;-69
2022/06/05 04:53:51;;;;;;;7.90;5.93;;;21.40;77.90;;;;;;5093147;28;20455;-67
2022/06/05 04:56:20;;;;;;;5.53;5.13;;;21.40;77.90;;;;;;5093076;28;20795;-67
2022/06/05 04:58:48;;;;;;;6.57;6.07;;;21.40;78.00;;;;;;5091490;28;20475;-68
2022/06/05 05:01:18;;;;;;;6.00;5.20;;;21.50;78.20;;;;;;5093940;28;20459;-68
2022/06/05 05:03:45;;;;;;;6.53;6.03;;;21.50;78.40;;;;;;5094173;28;20454;-69
2022/06/05 05:06:13;;;;;;;5.90;5.50;;;21.50;78.40;;;;;;5091748;28;20573;-67
2022/06/05 05:08:40;;;;;;;6.50;6.00;;;21.50;78.60;;;;;;5092827;28;20463;-67
2022/06/05 05:11:07;;;;;;;9.43;6.20;;;21.60;78.80;;;;;;5091172;28;20486;-67
2022/06/05 05:13:34;;;;;;;6.97;6.37;;;21.50;79.10;;;;;;5090036;28;20812;-67
2022/06/05 05:16:02;;;;;;;6.77;5.80;;;21.50;79.70;;;;;;5093921;28;20443;-67
2022/06/05 05:18:29;;;;;;;6.70;6.10;;;21.50;80.40;;;;;;5093048;28;20467;-69
2022/06/05 05:21:03;;;;;;;6.73;5.90;;;21.60;80.80;;;;;;5090929;28;20479;-67
2022/06/05 05:23:30;;;;;;;6.67;6.00;;;21.60;80.80;;;;;;5093933;28;20466;-68
2022/06/05 05:26:05;;;;;;;6.60;6.10;;;21.70;80.40;;;;;;5092404;28;20470;-67
2022/06/05 05:28:32;;;;;;;7.17;6.77;;;21.70;80.30;;;;;;5091683;28;20455;-67
2022/06/05 05:30:58;;;;;;;6.63;6.13;;;21.70;80.20;;;;;;5091717;28;20483;-67
2022/06/05 05:33:27;;;;;;;8.40;7.47;;;21.80;80.40;;;;;;5092377;28;20456;-68
2022/06/05 05:35:54;;;;;;;7.13;6.17;;;21.80;80.10;;;;;;5092731;28;20460;-67
2022/06/05 05:38:21;;;;;;;7.10;6.40;;;21.80;80.40;;;;;;5092603;28;20468;-67
2022/06/05 05:43:32;;;;;;;6.40;5.70;;;21.90;80.70;;;;;;5087341;28;20436;-67
2022/06/05 05:45:58;;;;;;;6.43;5.80;;;21.90;80.10;;;;;;5083350;28;20459;-67
2022/06/05 05:48:27;;;;;;;6.50;5.73;;;22.00;79.70;;;;;;5094814;28;20459;-67
2022/06/05 05:50:53;;;;;;;6.13;5.53;;;22.00;79.00;;;;;;5096484;28;20562;-67
2022/06/05 05:53:20;;;;;;;6.80;6.30;;;22.00;78.40;;;;;;5096234;28;20902;-67
2022/06/05 05:55:47;;;;;;;6.17;5.57;;;22.10;77.90;;;;;;5096177;28;20936;-67
2022/06/05 05:58:14;;;;;;;5.90;5.40;;;22.10;78.20;;;;;;5096315;28;20972;-67
2022/06/05 06:00:40;;;;;;;6.80;6.30;;;22.10;78.60;;;;;;5097710;28;20463;-69
2022/06/05 06:03:07;;;;;;;5.87;5.47;;;22.10;78.20;;;;;;5097519;28;20455;-68
2022/06/05 06:05:36;;;;;;;4.97;4.63;;;22.20;78.00;;;;;;5097558;28;20444;-69
2022/06/05 06:08:02;;;;;;;7.27;5.60;;;22.20;77.80;;;;;;5080861;28;20461;-67
2022/06/05 06:10:29;;;;;;;6.10;5.53;;;22.20;77.20;;;;;;5076835;28;20464;-67
2022/06/05 06:12:56;;;;;;;6.00;5.60;;;22.30;77.20;;;;;;5088139;28;20479;-69
2022/06/05 06:15:23;;;;;;;5.90;5.37;;;22.30;77.20;;;;;;5096914;28;20458;-69
2022/06/05 06:17:49;;;;;;;5.93;5.43;;;22.40;77.00;;;;;;5097122;28;20443;-67
2022/06/05 06:20:16;;;;;;;5.57;5.17;;;22.50;76.70;;;;;;5096696;28;20991;-68
2022/06/05 06:22:44;;;;;;;6.50;5.83;;;22.50;76.20;;;;;;5092735;28;20455;-67
2022/06/05 06:25:11;;;;;;;5.30;4.93;;;22.50;75.50;;;;;;5096980;28;20440;-69
2022/06/05 06:27:38;;;;;;;5.03;4.73;;;22.60;75.30;;;;;;5095326;28;20542;-68
2022/06/05 06:30:06;;;;;;;6.00;5.60;;;22.60;75.00;;;;;;5096871;28;20474;-68
2022/06/05 06:32:35;;;;;;;5.70;5.30;;;22.70;74.70;;;;;;5095493;28;20479;-67
2022/06/05 06:35:02;;;;;;;6.10;5.70;;;22.70;74.80;;;;;;5095968;28;20463;-67
2022/06/05 06:37:28;;;;;;;5.87;5.47;;;22.70;74.30;;;;;;5094118;28;20455;-68
2022/06/05 06:39:56;;;;;;;5.57;5.07;;;22.80;74.60;;;;;;5096430;28;20874;-68
2022/06/05 06:42:23;;;;;;;6.23;5.73;;;22.80;74.30;;;;;;5095787;28;20436;-68
2022/06/05 06:44:50;;;;;;;5.63;5.30;;;22.80;74.10;;;;;;5096343;28;20833;-68
2022/06/05 06:47:17;;;;;;;5.93;5.53;;;22.90;74.10;;;;;;5095817;28;20444;-67
2022/06/05 06:49:43;;;;;;;6.00;5.50;;;22.90;73.80;;;;;;5097154;28;20476;-68
2022/06/05 06:52:10;;;;;;;5.70;5.40;;;23.00;73.20;;;;;;5096731;28;20475;-68
2022/06/05 06:54:37;;;;;;;5.77;5.37;;;23.00;72.80;;;;;;5098890;28;20444;-68
2022/06/05 06:57:06;;;;;;;5.30;4.90;;;23.00;72.50;;;;;;5095246;28;20444;-67
2022/06/05 06:59:32;;;;;;;5.27;4.97;;;23.10;71.90;;;;;;5096066;28;20956;-68
2022/06/05 07:01:59;;;;;;;5.23;4.83;;;23.10;70.90;;;;;;5096170;28;20806;-68
2022/06/05 07:04:26;;;;;;;5.80;5.40;;;23.20;70.60;;;;;;5096135;28;20959;-68
2022/06/05 07:06:53;;;;;;;5.50;5.13;;;23.30;70.50;;;;;;5096300;28;20446;-68
2022/06/05 07:09:20;;;;;;;5.40;4.93;;;23.40;70.50;;;;;;5094176;28;20464;-67
2022/06/05 07:11:46;;;;;;;5.30;4.90;;;23.50;70.00;;;;;;5091147;28;20980;-68
2022/06/05 07:14:16;;;;;;;5.83;4.83;;;23.50;68.90;;;;;;5096014;28;20464;-68
2022/06/05 07:16:43;;;;;;;6.50;6.00;;;23.60;68.30;;;;;;5091747;28;20464;-67
2022/06/05 07:19:10;;;;;;;5.07;4.80;;;23.70;67.60;;;;;;5089601;28;20460;-68
2022/06/05 07:21:37;;;;;;;6.10;5.60;;;23.80;67.30;;;;;;5092068;28;21000;-68
2022/06/05 07:24:04;;;;;;;6.03;5.53;;;23.90;67.10;;;;;;5095517;28;20984;-68
2022/06/05 07:26:33;;;;;;;6.00;5.60;;;24.00;67.30;;;;;;5091721;28;20456;-68
2022/06/05 07:29:00;;;;;;;5.63;5.23;;;24.10;67.00;;;;;;5095460;28;20971;-68
2022/06/05 07:31:30;;;;;;;5.80;5.40;;;24.20;66.30;;;;;;5094804;28;20456;-68
2022/06/05 07:33:57;;;;;;;5.80;5.40;;;24.30;66.50;;;;;;5095445;28;20452;-68
2022/06/05 07:36:26;;;;;;;5.30;5.00;;;24.30;65.70;;;;;;5095553;28;20460;-69
2022/06/05 07:38:55;;;;;;;5.70;5.30;;;24.40;65.40;;;;;;5094997;28;20481;-68
2022/06/05 07:41:26;;;;;;;6.10;5.67;;;24.50;65.20;;;;;;5094780;28;20522;-68
2022/06/05 07:43:53;;;;;;;5.17;4.77;;;24.70;64.30;;;;;;5081305;28;20477;-68
2022/06/05 07:46:20;;;;;;;5.50;5.10;;;24.80;63.60;;;;;;5090057;28;20468;-68
2022/06/05 07:48:49;;;;;;;5.43;5.00;;;24.90;63.10;;;;;;5095385;28;20432;-69
2022/06/05 07:56:48;;;;;;;6.00;5.60;;;25.40;62.10;;;;;;5095626;28;20438;-68
2022/06/05 07:59:15;;;;;;;4.57;4.27;;;25.50;61.70;;;;;;5095405;28;20479;-68
2022/06/05 08:01:42;;;;;;;5.03;4.73;;;25.60;61.00;;;;;;5095470;28;20455;-68
2022/06/05 08:04:10;;;;;;;4.90;4.37;;;25.70;60.10;;;;;;5095092;28;20436;-68
2022/06/05 08:06:37;;;;;;;5.63;5.33;;;26.00;59.70;;;;;;5094980;28;20451;-68
2022/06/05 08:09:06;;;;;;;6.10;5.60;;;26.00;59.50;;;;;;5094168;28;20428;-68
2022/06/05 08:11:33;;;;;;;5.60;5.20;;;26.20;59.70;;;;;;5094907;28;20914;-68
2022/06/05 08:14:00;;;;;;;5.33;4.93;;;26.30;59.00;;;;;;5094758;28;20479;-68
2022/06/05 08:16:27;;;;;;;5.73;5.33;;;26.30;58.50;;;;;;5095006;28;20455;-68
2022/06/05 08:18:54;;;;;;;5.70;5.30;;;26.40;58.80;;;;;;5093623;28;20428;-68
2022/06/05 08:21:23;;;;;;;6.33;5.80;;;26.30;58.80;;;;;;5085293;28;20488;-68
2022/06/05 08:23:50;;;;;;;5.93;5.40;;;26.30;59.20;;;;;;5092118;28;20456;-68
2022/06/05 08:26:17;;;;;;;7.50;5.97;;;26.10;59.70;;;;;;5094652;28;20428;-68
2022/06/05 08:28:44;;;;;;;6.90;6.43;;;26.00;60.30;;;;;;5094523;28;20812;-68
2022/06/05 08:31:11;;;;;;;7.30;6.80;;;25.90;61.30;;;;;;5094496;28;20464;-68
2022/06/05 08:33:38;;;;;;;7.07;6.57;;;25.70;62.50;;;;;;5092905;28;20484;-68
2022/06/05 08:36:05;;;;;;;6.07;5.63;;;25.60;62.80;;;;;;5092186;28;20468;-68
2022/06/05 08:41:34;;;;;;;6.10;5.60;;;25.40;66.10;;;;;;5082658;28;20474;-68
2022/06/05 08:44:17;;;;;;;6.93;6.27;;;25.40;66.00;;;;;;5092808;28;20463;-68
2022/06/05 08:46:51;;;;;;;7.97;7.03;;;25.40;67.40;;;;;;5092017;28;20966;-68
2022/06/05 08:49:23;;;;;;;7.37;6.87;;;25.30;67.30;;;;;;5091213;28;20452;-68
2022/06/05 08:51:57;;;;;;;6.90;6.37;;;25.20;68.50;;;;;;5092714;28;20464;-68
2022/06/05 08:54:37;;;;;;;8.33;7.63;;;25.10;67.70;;;;;;5094223;28;20430;-68
2022/06/05 08:57:09;;;;;;;9.10;8.33;;;24.90;68.00;;;;;;5094263;28;20436;-68
2022/06/05 08:59:44;;;;;;;7.83;7.33;;;24.70;70.20;;;;;;5092362;28;20466;-68
2022/06/05 09:02:18;;;;;;;7.63;7.13;;;24.50;71.10;;;;;;5091481;28;20771;-68
2022/06/05 09:04:53;;;;;;;8.17;7.57;;;24.30;72.30;;;;;;5090661;28;20466;-68
2022/06/05 09:07:24;;;;;;;7.73;7.23;;;24.10;72.30;;;;;;5089292;28;20463;-68
2022/06/05 09:09:58;;;;;;;7.90;7.30;;;23.90;72.90;;;;;;5092940;28;20850;-67
2022/06/05 09:12:33;;;;;;;9.03;8.43;;;23.70;74.20;;;;;;5093527;28;20969;-67
2022/06/05 09:15:07;;;;;;;8.50;7.70;;;23.50;75.60;;;;;;5092827;28;20459;-68
2022/06/05 09:17:35;;;;;;;9.33;8.43;;;23.30;76.00;;;;;;5073846;28;20472;-68
2022/06/05 09:20:03;;;;;;;9.90;8.90;;;23.20;78.30;;;;;;5082029;28;20459;-68
2022/06/05 09:22:37;;;;;;;12.03;10.57;;;23.10;80.50;;;;;;5093518;28;20925;-68
2022/06/05 09:25:26;;;;;;;10.80;9.90;;;22.90;81.70;;;;;;5093783;28;20428;-68
2022/06/05 09:28:06;;;;;;;10.10;9.33;;;22.70;83.90;;;;;;5094225;28;20955;-68
2022/06/05 09:30:40;;;;;;;9.50;8.70;;;22.50;85.00;;;;;;5093084;28;20490;-68
2022/06/05 09:33:18;;;;;;;10.47;9.77;;;22.50;86.70;;;;;;5093895;28;20467;-68
2022/06/05 09:35:48;;;;;;;9.40;8.70;;;22.40;87.20;;;;;;5085986;28;20478;-67
2022/06/05 09:38:22;;;;;;;10.00;9.20;;;22.40;88.10;;;;;;5088897;28;20451;-67
2022/06/05 09:41:01;;;;;;;10.60;9.80;;;22.50;89.00;;;;;;5088847;28;20851;-67
2022/06/05 09:43:50;;;;;;;10.40;9.70;;;22.70;89.60;;;;;;5092308;28;20452;-67
2022/06/05 09:46:42;;;;;;;10.03;9.10;;;22.90;89.80;;;;;;5087881;28;20452;-67
2022/06/05 09:49:13;;;;;;;9.90;9.30;;;23.10;90.00;;;;;;5086504;28;20464;-67
2022/06/05 09:51:42;;;;;;;10.20;9.50;;;23.30;90.10;;;;;;5093094;28;20992;-67
2022/06/05 09:54:19;;;;;;;10.20;9.40;;;23.50;90.10;;;;;;5090018;28;20471;-67
2022/06/05 09:59:52;;;;;;;10.70;9.90;;;23.60;88.70;;;;;;5093154;28;20424;-68
2022/06/05 10:02:22;;;;;;;10.70;9.90;;;23.70;88.80;;;;;;5093499;28;20424;-68
2022/06/05 10:04:50;;;;;;;11.10;10.20;;;23.80;87.30;;;;;;5092503;28;20455;-68
2022/06/05 10:07:21;;;;;;;10.30;9.60;;;23.70;86.10;;;;;;5093426;28;20446;-68
2022/06/05 10:09:49;;;;;;;10.37;9.57;;;23.80;86.20;;;;;;5089798;28;20482;-68
2022/06/05 10:12:24;;;;;;;9.80;9.10;;;23.80;87.30;;;;;;5089754;28;20542;-67
2022/06/05 10:14:54;;;;;;;11.93;10.80;;;23.90;85.90;;;;;;5079242;28;20519;-67
2022/06/05 10:17:45;;;;;;;10.33;9.63;;;24.10;86.40;;;;;;5090356;28;20462;-67
2022/06/05 10:20:36;;;;;;;10.30;9.60;;;24.30;86.30;;;;;;5080455;28;20475;-67
2022/06/05 10:23:19;;;;;;;10.90;10.10;;;24.40;85.80;;;;;;5092880;28;20794;-67
2022/06/05 10:25:53;;;;;;;9.00;8.23;;;24.40;85.40;;;;;;5093445;28;20426;-67
2022/06/05 10:28:25;;;;;;;9.67;8.90;;;24.50;84.20;;;;;;5093408;28;20796;-67
2022/06/05 10:30:58;;;;;;;10.67;9.87;;;24.70;83.60;;;;;;5086108;28;20490;-67
2022/06/05 10:33:38;;;;;;;11.50;10.60;;;24.90;83.30;;;;;;5094544;28;20953;-67
2022/06/05 10:36:13;;;;;;;10.67;9.87;;;25.10;83.10;;;;;;5094058;28;20447;-67
2022/06/05 10:38:47;;;;;;;10.10;9.30;;;25.20;81.60;;;;;;5094512;28;20451;-68
2022/06/05 10:41:22;;;;;;;11.07;10.17;;;25.20;81.80;;;;;;5096031;28;20464;-68
2022/06/05 10:44:14;;;;;;;10.07;9.37;;;25.30;81.60;;;;;;5094798;28;20777;-68
2022/06/05 10:46:53;;;;;;;10.70;9.90;;;25.30;81.70;;;;;;5095244;28;20468;-68
2022/06/05 10:49:29;;;;;;;11.03;9.93;;;25.40;80.90;;;;;;5095305;28;20443;-68
2022/06/05 10:52:09;;;;;;;10.20;9.50;;;25.40;80.20;;;;;;5097080;28;20798;-68
2022/06/05 10:54:43;;;;;;;10.27;9.43;;;25.40;79.90;;;;;;5099333;28;20471;-68
2022/06/05 10:57:16;;;;;;;9.73;9.10;;;25.40;80.80;;;;;;5097112;28;20814;-68
2022/06/05 10:59:57;;;;;;;10.53;8.70;;;25.20;80.90;;;;;;5095228;28;20459;-68
2022/06/05 11:02:35;;;;;;;10.63;9.90;;;25.20;80.80;;;;;;5097781;28;20511;-68
2022/06/05 11:05:14;;;;;;;10.00;8.90;;;25.10;81.40;;;;;;5096012;28;20901;-68
2022/06/05 11:07:53;;;;;;;11.83;10.80;;;25.00;81.80;;;;;;5095023;28;20894;-68
2022/06/05 11:13:42;;;;;;;9.73;9.03;;;25.10;83.20;;;;;;5075544;28;20957;-68
2022/06/05 11:16:21;;;;;;;10.30;9.60;;;25.10;82.50;;;;;;5079988;28;20463;-68
2022/06/05 11:18:54;;;;;;;10.23;9.50;;;25.00;81.70;;;;;;5094897;28;20816;-68
2022/06/05 11:21:23;;;;;;;9.97;9.23;;;25.00;81.90;;;;;;5096206;28;20489;-68
2022/06/05 11:23:55;;;;;;;11.60;10.70;;;24.90;82.30;;;;;;5095566;28;20932;-67
2022/06/05 11:26:31;;;;;;;9.53;8.83;;;24.90;83.10;;;;;;5096091;28;20804;-68
2022/06/05 11:29:11;;;;;;;10.03;9.33;;;24.80;82.90;;;;;;5093486;28;20466;-67
2022/06/05 11:31:51;;;;;;;9.97;9.27;;;24.80;82.90;;;;;;5095411;28;20467;-67
2022/06/05 11:34:33;;;;;;;10.23;9.43;;;24.80;83.20;;;;;;5094404;28;20475;-67
2022/06/05 11:37:17;;;;;;;9.90;9.30;;;24.90;82.60;;;;;;5094923;28;20460;-67
2022/06/05 11:39:50;;;;;;;8.60;7.97;;;25.00;82.90;;;;;;5093695;28;20465;-67
2022/06/05 11:42:22;;;;;;;10.20;9.43;;;25.60;81.50;;;;;;5092935;28;20460;-67
2022/06/05 11:44:54;;;;;;;8.53;7.93;;;26.40;80.60;;;;;;5093062;28;20981;-67
2022/06/05 11:47:37;;;;;;;10.70;9.77;;;27.10;77.20;;;;;;5095423;28;20435;-68
2022/06/05 11:50:12;;;;;;;8.90;7.93;;;27.70;75.40;;;;;;5095437;28;20469;-68
2022/06/05 11:52:45;;;;;;;7.03;6.63;;;28.30;70.90;;;;;;5095440;28;20431;-68
2022/06/05 11:55:25;;;;;;;7.30;6.80;;;28.90;68.80;;;;;;5094346;28;20803;-68
2022/06/05 11:58:01;;;;;;;8.47;7.87;;;29.60;65.50;;;;;;5095277;28;20447;-68
2022/06/05 12:00:32;;;;;;;9.17;8.57;;;30.20;61.70;;;;;;5095191;28;20467;-68
2022/06/05 12:03:10;;;;;;;8.00;7.50;;;30.60;59.00;;;;;;5095856;28;20434;-68
2022/06/05 12:05:48;;;;;;;8.33;7.83;;;30.80;57.80;;;;;;5092714;28;20475;-67
2022/06/05 12:08:22;;;;;;;8.00;7.50;;;30.90;57.10;;;;;;5088599;28;20466;-68
2022/06/05 12:10:59;;;;;;;7.77;7.27;;;30.90;56.00;;;;;;5098347;28;20452;-68
2022/06/05 12:13:52;;;;;;;7.07;6.60;;;30.80;56.60;;;;;;5093592;28;20558;-68
2022/06/05 12:16:31;;;;;;;7.10;6.70;;;30.60;56.40;;;;;;5090378;28;20472;-68
2022/06/05 12:19:09;;;;;;;7.57;7.07;;;30.50;57.20;;;;;;5093922;28;20471;-68
2022/06/05 12:21:40;;;;;;;7.13;6.60;;;30.40;57.40;;;;;;5091640;28;20479;-68
2022/06/05 12:24:14;;;;;;;6.70;6.20;;;30.40;57.40;;;;;;5092108;28;20470;-67
2022/06/05 12:26:51;;;;;;;6.57;6.17;;;30.40;57.40;;;;;;5094568;28;20909;-68
2022/06/05 12:29:21;;;;;;;7.57;7.00;;;30.30;57.40;;;;;;5094757;28;20427;-68
2022/06/05 12:31:53;;;;;;;6.30;5.97;;;30.20;57.30;;;;;;5094317;28;20464;-68
2022/06/05 12:34:27;;;;;;;6.93;6.43;;;30.20;57.20;;;;;;5094739;28;20464;-68
2022/06/05 12:36:59;;;;;;;7.47;6.97;;;30.40;57.30;;;;;;5094604;28;20493;-68
2022/06/05 12:39:28;;;;;;;6.40;6.00;;;30.90;56.40;;;;;;5094623;28;20446;-68
2022/06/05 12:42:12;;;;;;;6.20;5.80;;;31.30;55.50;;;;;;5093414;28;20460;-68
2022/06/05 12:44:43;;;;;;;6.70;6.20;;;32.10;54.40;;;;;;5093231;28;20451;-68
2022/06/05 12:47:20;;;;;;;5.97;5.57;;;33.20;51.40;;;;;;5094352;28;20446;-68
2022/06/05 12:50:08;;;;;;;6.83;6.13;;;34.40;48.00;;;;;;5094247;28;20467;-68
2022/06/05 12:52:42;;;;;;;6.13;5.73;;;35.70;44.90;;;;;;5093008;28;20470;-68
2022/06/05 12:55:16;;;;;;;7.30;5.60;;;36.40;41.80;;;;;;5093424;28;20471;-68
2022/06/05 12:57:54;;;;;;;5.63;5.13;;;36.90;40.10;;;;;;5091796;28;21018;-68
2022/06/05 13:00:31;;;;;;;5.90;5.60;;;37.30;38.70;;;;;;5094029;28;20956;-68
2022/06/05 13:03:03;;;;;;;5.50;5.00;;;37.90;38.40;;;;;;5094109;28;20189;-68
2022/06/05 13:05:38;;;;;;;5.00;4.70;;;38.80;36.00;;;;;;5094084;28;20193;-68
2022/06/05 13:08:09;;;;;;;5.35;4.95;;;39.10;34.40;;;;;;5094083;28;20234;-68
2022/06/05 13:10:40;;;;;;;5.15;4.78;;;38.80;34.00;;;;;;5094027;28;20248;-68
2022/06/05 13:13:19;;;;;;;7.03;5.57;;;38.10;34.70;;;;;;5094371;28;20193;-69
2022/06/05 13:15:51;;;;;;;6.60;6.10;;;37.20;35.60;;;;;;5092272;28;20181;-69
2022/06/05 13:18:25;;;;;;;6.83;6.40;;;36.30;37.40;;;;;;5093928;28;20194;-69
2022/06/05 13:21:04;;;;;;;7.87;6.97;;;35.40;39.30;;;;;;5093972;28;20466;-69
2022/06/05 13:23:34;;;;;;;6.80;6.30;;;34.50;41.00;;;;;;5087926;28;20458;-67
2022/06/05 13:26:16;;;;;;;7.03;6.63;;;33.80;42.10;;;;;;5093182;28;20473;-68